Friday, October 19, 2018, 1:17 AM EDT
Back to Local

KVAY, Mt Holly South Jersey Rgnl

Location: Medford, NJ, United States Lat: 39.933
Local Time: 1:17 AM EDT ( 5:17 GMT) Lon: -74.833
Time Zone: US/Eastern Elev: 52 ft

Show me the last for .
Show Coded

Time T Td Feel RH Dir Speed Gust Alt SLP Vis Weather Sky Remarks
2018-10-19 00:54 35 34 - 95 - Calm - 30.36 30.36 10 CLR 24-hr Min Temp (1am): 35.1°F
24-hr Max Temp (1am): 53.1°F
2018-10-18 23:54 36 35 - 96 - Calm - 30.36 30.36 10 CLR None
2018-10-18 22:54 36 35 - 96 - Calm - 30.37 30.37 10 CLR None
2018-10-18 21:54 37 35 - 92 - Calm - 30.37 30.37 10 CLR None
2018-10-18 20:54 38 35 - 89 - Calm - 30.36 30.37 10 CLR None
2018-10-18 19:54 40 34 - 79 - Calm - 30.37 30.37 10 CLR 6-hr Min Temp (8pm): 39.9°F
6-hr Max Temp (8pm): 53.1°F
2018-10-18 18:54 45 32 - 60 - Calm - 30.37 30.36 10 CLR None
2018-10-18 17:54 50 28 48 42 280° 5 - 30.35 30.35 10 CLR None
2018-10-18 16:54 52 28 - 39 290° 13 18 30.34 30.34 10 CLR None
2018-10-18 15:54 52 28 - 39 310° 8 18 30.34 30.34 10 CLR None
2018-10-18 14:54 52 28 - 39 290° 9 - 30.35 30.35 10 CLR None
2018-10-18 13:54 51 29 - 42 280° 12 - 30.37 30.37 10 FEW055 6-hr Min Temp (2pm): 43.0°F
6-hr Max Temp (2pm): 51.1°F
2018-10-18 12:54 48 28 44 45 270° 8 - 30.39 30.39 10 SCT050 None
2018-10-18 11:54 49 29 42 45 310° 10 18 30.39 30.39 10 BKN050 None
2018-10-18 10:54 48 28 43 45 310° 10 - 30.40 30.39 10 FEW050 None
2018-10-18 09:54 48 31 43 51 330° 12 - 30.39 30.38 10 SCT046 OVC055 None
2018-10-18 08:54 45 30 41 55 Variable 7 - 30.38 30.37 10 BKN060 None
2018-10-18 07:54 43 29 39 57 280° 7 - 30.35 30.35 10 FEW060 6-hr Min Temp (8am): 41.0°F
6-hr Max Temp (8am): 46.9°F
2018-10-18 06:54 43 28 40 55 280° 5 - 30.32 30.32 10 CLR None
2018-10-18 05:54 42 28 39 57 260° 5 - 30.30 30.30 10 CLR None
2018-10-18 04:54 43 27 39 52 270° 6 - 30.27 30.27 10 CLR None
2018-10-18 03:54 44 29 42 55 280° 5 - 30.26 30.26 10 CLR None
2018-10-18 02:54 46 30 42 53 310° 8 - 30.24 30.24 10 FEW060 None
2018-10-18 01:54 47 31 44 53 280° 7 - 30.22 30.21 10 FEW055 6-hr Min Temp (2am): 46.9°F
6-hr Max Temp (2am): 57.0°F

Support USWX by starting your Amazon purchase here.